Pensacola NAS, Florida
Current Conditions -  °F | °C
As of 11:56 AM on Wednesday 28 Jan 2015 (Local Time) from KNPA Reporting Station
Clear Clear  
Wind Chill: 60°   Ceiling: Unl
Heat Index: 60°   Visibility: 10mi
Dew Point: 34°   Wind: 5mph
Humidity: 38%   Direction: NA
Pressure: 30.26"   Gusts: NA
Location:  30.35°N, 87.32°W
Report Text: KNPA 281756Z VRB04KT 10SM CLR 16/01 A3026 RMK AO2 SLP249 T01560011 10156 20028 58009 $
Loading
Personal Weather Stations






























Interactive Weather Map New forecast layout! Learn more

10-Day Weather Forecast

Advertisements
Track Severe Weather on mobile